Time;durP1;ratioP1;P1;durP2;ratioP2;P2;SDS_P1;SDS_P2;PMS_P1;PMS_P2;Temp;Humidity;BMP_temperature;BMP_pressure;BME280_temperature;BME280_humidity;BME280_pressure;Samples;Min_cycle;Max_cycle;Signal;HPM_P1;HPM_P2
2022/10/09 00:02:19;;;;;;;;;;;9.10;72.50;;;;;;5044047;28;20321;-78
2022/10/09 00:04:44;;;;;;;;;;;9.10;72.60;;;;;;5042882;28;19913;-78
2022/10/09 00:07:10;;;;;;;;;;;9.00;72.60;;;;;;5041499;28;19916;-78
2022/10/09 00:09:35;;;;;;;;;;;9.00;72.60;;;;;;5059304;28;20046;-78
2022/10/09 00:12:01;;;;;;;;;;;9.10;72.70;;;;;;5031224;28;19921;-78
2022/10/09 00:14:26;;;;;;;;;;;9.00;72.60;;;;;;5059400;28;19916;-78
2022/10/09 00:16:52;;;;;;;;;;;9.00;72.60;;;;;;5041576;28;19912;-78
2022/10/09 00:19:18;;;;;;;;;;;8.90;72.60;;;;;;5059851;28;19916;-77
2022/10/09 00:21:43;;;;;;;;;;;8.90;72.70;;;;;;5041339;28;19958;-77
2022/10/09 00:24:09;;;;;;;;;;;8.90;72.70;;;;;;5028317;28;20015;-77
2022/10/09 00:26:34;;;;;;;;;;;8.90;72.80;;;;;;5042026;28;19913;-78
2022/10/09 00:29:00;;;;;;;;;;;8.90;72.80;;;;;;5059933;28;20509;-78
2022/10/09 00:31:25;;;;;;;;;;;8.90;72.90;;;;;;5060268;28;20529;-78
2022/10/09 00:33:51;;;;;;;;;;;8.90;72.80;;;;;;5041357;28;19962;-78
2022/10/09 00:36:17;;;;;;;;;;;8.90;72.80;;;;;;5044663;28;19916;-77
2022/10/09 00:38:43;;;;;;;;;;;8.90;72.80;;;;;;5044330;28;19916;-77
2022/10/09 00:41:09;;;;;;;;;;;8.90;72.80;;;;;;5043706;28;19920;-78
2022/10/09 00:43:37;;;;;;;;;;;8.90;72.90;;;;;;5042745;28;20366;-78
2022/10/09 00:46:02;;;;;;;;;;;8.90;72.90;;;;;;5061126;28;19920;-77
2022/10/09 00:48:28;;;;;;;;;;;8.90;72.80;;;;;;5064602;28;20597;-78
2022/10/09 00:50:54;;;;;;;;;;;8.90;72.80;;;;;;5062470;28;19931;-78
2022/10/09 00:53:20;;;;;;;;;;;8.90;72.80;;;;;;5044126;28;19923;-78
2022/10/09 00:55:45;;;;;;;;;;;8.90;73.00;;;;;;5044028;28;20296;-78
2022/10/09 00:58:11;;;;;;;;;;;8.90;72.90;;;;;;5052325;28;19928;-78
2022/10/09 01:00:37;;;;;;;;;;;8.90;72.90;;;;;;5059840;28;19921;-77
2022/10/09 01:03:02;;;;;;;;;;;8.90;72.90;;;;;;5060820;28;19928;-77
2022/10/09 01:05:51;;;;;;;;;;;8.90;72.90;;;;;;5079876;28;19923;-78
2022/10/09 01:08:19;;;;;;;;;;;8.90;72.90;;;;;;5032929;28;19916;-78
2022/10/09 01:11:07;;;;;;;;;;;8.90;72.90;;;;;;5058889;28;19944;-78
2022/10/09 01:13:35;;;;;;;;;;;8.90;72.90;;;;;;5065886;28;20287;-78
2022/10/09 01:16:02;;;;;;;;;;;8.90;72.90;;;;;;5063176;28;20384;-77
2022/10/09 01:18:30;;;;;;;;;;;8.90;72.90;;;;;;5077804;28;19919;-78
2022/10/09 01:21:03;;;;;;;;;;;8.90;73.00;;;;;;5064271;28;22961;-78
2022/10/09 01:23:51;;;;;;;;;;;8.90;73.00;;;;;;5071223;28;19926;-78
2022/10/09 01:26:22;;;;;;;;;;;8.90;73.00;;;;;;5053182;28;19923;-77
2022/10/09 01:28:50;;;;;;;;;;;8.90;73.00;;;;;;5063889;28;20491;-78
2022/10/09 01:31:15;;;;;;;;;;;8.80;73.00;;;;;;5044826;28;19994;-78
2022/10/09 01:33:41;;;;;;;;;;;8.80;73.00;;;;;;5078567;28;19916;-78
2022/10/09 01:36:06;;;;;;;;;;;8.80;73.00;;;;;;5058318;28;20411;-78
2022/10/09 01:38:32;;;;;;;;;;;8.80;73.10;;;;;;5049751;28;19912;-78
2022/10/09 01:40:57;;;;;;;;;;;8.80;73.10;;;;;;5077739;28;19951;-78
2022/10/09 01:43:23;;;;;;;;;;;8.80;73.20;;;;;;5063275;28;19912;-78
2022/10/09 01:45:48;;;;;;;;;;;8.80;73.20;;;;;;5075327;28;19916;-78
2022/10/09 01:48:15;;;;;;;;;;;8.90;73.20;;;;;;5073300;28;19931;-78
2022/10/09 01:50:42;;;;;;;;;;;8.90;73.20;;;;;;5059617;28;19916;-78
2022/10/09 01:53:09;;;;;;;;;;;8.90;73.10;;;;;;5060746;28;19912;-78
2022/10/09 01:55:53;;;;;;;;;;;8.90;73.10;;;;;;5048240;28;19924;-78
2022/10/09 01:58:50;;;;;;;;;;;8.90;73.10;;;;;;5078142;28;20279;-78
2022/10/09 02:01:17;;;;;;;;;;;8.90;73.10;;;;;;4986026;28;21431;-78
2022/10/09 02:03:43;;;;;;;;;;;8.90;73.10;;;;;;5002133;28;20097;-77
2022/10/09 02:06:10;;;;;;;;;;;8.90;73.10;;;;;;5000008;28;20329;-77
2022/10/09 02:08:35;;;;;;;;;;;8.90;73.10;;;;;;5001704;28;19918;-78
2022/10/09 02:11:01;;;;;;;;;;;8.90;73.00;;;;;;4988513;28;19917;-78
2022/10/09 02:13:27;;;;;;;;;;;8.90;73.10;;;;;;4988729;28;19909;-78
2022/10/09 02:15:59;;;;;;;;;;;8.90;73.10;;;;;;4985654;28;20428;-78
2022/10/09 02:18:25;;;;;;;;;;;8.90;73.20;;;;;;5003397;28;19909;-78
2022/10/09 02:20:53;;;;;;;;;;;8.90;73.10;;;;;;4985964;28;20619;-77
2022/10/09 02:23:18;;;;;;;;;;;9.00;73.20;;;;;;4985448;28;19920;-78
2022/10/09 02:25:44;;;;;;;;;;;9.00;72.50;;;;;;4997427;28;19910;-77
2022/10/09 02:28:09;;;;;;;;;;;8.90;73.10;;;;;;5002337;28;20052;-78
2022/10/09 02:30:38;;;;;;;;;;;8.90;73.10;;;;;;4987563;28;19970;-78
2022/10/09 02:33:04;;;;;;;;;;;9.00;73.20;;;;;;4987704;28;19928;-78
2022/10/09 02:35:29;;;;;;;;;;;8.90;73.10;;;;;;5002465;28;19925;-78
2022/10/09 02:37:55;;;;;;;;;;;8.90;73.10;;;;;;5073215;28;20472;-78
2022/10/09 02:40:20;;;;;;;;;;;8.90;73.10;;;;;;5046061;28;19920;-78
2022/10/09 02:42:45;;;;;;;;;;;9.00;73.20;;;;;;5077858;28;20065;-78
2022/10/09 02:45:11;;;;;;;;;;;9.00;73.20;;;;;;5080658;28;19912;-77
2022/10/09 02:47:36;;;;;;;;;;;9.00;73.20;;;;;;5077164;28;20008;-78
2022/10/09 02:50:02;;;;;;;;;;;9.00;73.10;;;;;;5079682;28;19920;-78
2022/10/09 02:52:27;;;;;;;;;;;9.00;73.10;;;;;;5080428;28;19920;-78
2022/10/09 02:54:53;;;;;;;;;;;9.00;73.20;;;;;;5095777;28;19912;-77
2022/10/09 02:57:18;;;;;;;;;;;9.00;73.10;;;;;;5051519;28;19911;-78
2022/10/09 02:59:44;;;;;;;;;;;9.10;73.20;;;;;;5064278;28;19950;-78
2022/10/09 03:02:09;;;;;;;;;;;9.00;73.10;;;;;;5083182;28;19916;-78
2022/10/09 03:04:35;;;;;;;;;;;9.10;73.10;;;;;;5064502;28;19994;-78
2022/10/09 03:07:00;;;;;;;;;;;9.00;73.00;;;;;;5078763;28;19916;-78
2022/10/09 03:09:26;;;;;;;;;;;9.00;73.00;;;;;;5067238;28;19912;-78
2022/10/09 03:11:51;;;;;;;;;;;9.00;73.20;;;;;;5080773;28;19912;-78
2022/10/09 03:14:17;;;;;;;;;;;9.00;73.20;;;;;;5059086;28;19927;-77
2022/10/09 03:16:42;;;;;;;;;;;9.00;73.20;;;;;;5083074;28;19935;-78
2022/10/09 03:19:08;;;;;;;;;;;9.00;73.20;;;;;;5067627;28;19959;-78
2022/10/09 03:21:33;;;;;;;;;;;9.00;73.10;;;;;;5080125;28;19920;-78
2022/10/09 03:23:59;;;;;;;;;;;9.00;73.20;;;;;;5077233;28;20389;-78
2022/10/09 03:26:25;;;;;;;;;;;9.00;73.20;;;;;;5076704;28;20302;-78
2022/10/09 03:28:51;;;;;;;;;;;9.00;73.20;;;;;;5063288;28;19939;-77
2022/10/09 03:31:16;;;;;;;;;;;8.90;73.20;;;;;;5074447;28;20295;-78
2022/10/09 03:33:42;;;;;;;;;;;9.00;73.30;;;;;;5047844;28;19912;-78
2022/10/09 03:36:07;;;;;;;;;;;9.00;73.30;;;;;;5079052;28;19913;-78
2022/10/09 03:38:33;;;;;;;;;;;9.00;73.30;;;;;;5064364;28;19916;-78
2022/10/09 03:40:59;;;;;;;;;;;9.00;73.30;;;;;;5062928;28;20419;-78
2022/10/09 03:43:24;;;;;;;;;;;8.90;73.20;;;;;;5077529;28;19938;-78
2022/10/09 03:45:50;;;;;;;;;;;8.90;73.20;;;;;;5066203;28;19944;-78
2022/10/09 03:48:15;;;;;;;;;;;8.90;73.30;;;;;;5080298;28;19915;-78
2022/10/09 03:50:41;;;;;;;;;;;8.90;73.30;;;;;;5065829;28;19995;-77
2022/10/09 03:53:07;;;;;;;;;;;8.90;73.30;;;;;;5047458;28;19912;-78
2022/10/09 03:55:32;;;;;;;;;;;8.90;73.30;;;;;;5079327;28;19924;-78
2022/10/09 03:57:58;;;;;;;;;;;8.90;73.30;;;;;;5063439;28;19920;-78
2022/10/09 04:00:23;;;;;;;;;;;8.90;73.30;;;;;;5062233;28;19938;-78
2022/10/09 04:02:49;;;;;;;;;;;8.90;73.30;;;;;;5097948;28;19916;-78
2022/10/09 04:05:14;;;;;;;;;;;8.90;73.30;;;;;;5079453;28;19931;-78
2022/10/09 04:07:40;;;;;;;;;;;8.90;73.30;;;;;;5064729;28;19916;-77
2022/10/09 04:10:06;;;;;;;;;;;8.80;73.30;;;;;;5078397;28;20393;-78
2022/10/09 04:12:31;;;;;;;;;;;8.80;73.30;;;;;;5080283;28;19916;-78
2022/10/09 04:14:56;;;;;;;;;;;8.90;73.40;;;;;;5066815;28;19998;-78
2022/10/09 04:17:22;;;;;;;;;;;8.80;73.30;;;;;;5061651;28;19962;-78
2022/10/09 04:19:47;;;;;;;;;;;8.80;73.40;;;;;;5061350;28;19916;-77
2022/10/09 04:22:13;;;;;;;;;;;8.80;73.40;;;;;;5062913;28;20273;-78
2022/10/09 04:24:38;;;;;;;;;;;8.80;73.40;;;;;;5048728;28;19920;-78
2022/10/09 04:27:04;;;;;;;;;;;8.80;73.40;;;;;;5072118;28;19955;-78
2022/10/09 04:29:29;;;;;;;;;;;8.80;73.40;;;;;;5060548;28;19912;-78
2022/10/09 04:31:55;;;;;;;;;;;8.80;73.40;;;;;;5078201;28;20050;-78
2022/10/09 04:34:20;;;;;;;;;;;8.80;73.40;;;;;;5078893;28;19931;-77
2022/10/09 04:36:46;;;;;;;;;;;8.80;73.40;;;;;;5077654;28;19917;-78
2022/10/09 04:39:11;;;;;;;;;;;8.80;73.40;;;;;;5060778;28;20559;-77
2022/10/09 04:41:37;;;;;;;;;;;8.80;73.40;;;;;;5062467;28;19917;-77
2022/10/09 04:44:02;;;;;;;;;;;8.80;73.50;;;;;;5063511;28;19958;-78
2022/10/09 04:46:28;;;;;;;;;;;8.70;73.40;;;;;;5062250;28;19978;-78
2022/10/09 04:48:53;;;;;;;;;;;8.70;73.30;;;;;;5065255;28;19952;-77
2022/10/09 04:51:19;;;;;;;;;;;8.70;73.50;;;;;;5062434;28;19912;-78
2022/10/09 04:53:44;;;;;;;;;;;8.70;73.50;;;;;;5074918;28;19925;-77
2022/10/09 04:56:11;;;;;;;;;;;8.60;73.60;;;;;;5076100;28;20074;-77
2022/10/09 04:58:39;;;;;;;;;;;8.70;73.60;;;;;;5073472;28;19931;-78
2022/10/09 05:01:23;;;;;;;;;;;8.60;73.60;;;;;;5063558;28;20022;-78
2022/10/09 05:03:49;;;;;;;;;;;8.70;73.60;;;;;;5068362;28;19963;-78
2022/10/09 05:09:19;;;;;;;;;;;8.60;73.60;;;;;;5078823;28;19927;-76
2022/10/09 05:11:45;;;;;;;;;;;8.60;73.60;;;;;;5064343;28;19920;-77
2022/10/09 05:17:19;;;;;;;;;;;8.60;73.60;;;;;;5066853;28;20605;-78
2022/10/09 05:19:45;;;;;;;;;;;8.50;73.60;;;;;;5051036;28;19988;-79
2022/10/09 05:25:16;;;;;;;;;;;8.50;73.60;;;;;;5073178;28;19936;-78
2022/10/09 05:27:43;;;;;;;;;;;8.60;73.60;;;;;;5073358;28;19912;-78
2022/10/09 05:39:22;;;;;;;;;;;8.50;73.60;;;;;;5069174;28;19932;-78
2022/10/09 05:41:47;;;;;;;;;;;8.50;73.70;;;;;;5076571;28;20403;-79
2022/10/09 05:44:13;;;;;;;;;;;8.50;73.60;;;;;;5048548;28;19920;-78
2022/10/09 05:55:50;;;;;;;;;;;8.50;73.70;;;;;;5062488;28;19919;-78
2022/10/09 05:58:15;;;;;;;;;;;8.50;73.70;;;;;;5066669;28;19943;-77
2022/10/09 06:00:41;;;;;;;;;;;8.40;73.60;;;;;;5080628;28;19932;-77
2022/10/09 06:03:06;;;;;;;;;;;8.40;73.70;;;;;;5065999;28;19999;-78
2022/10/09 06:05:32;;;;;;;;;;;8.40;73.70;;;;;;5079619;28;19912;-78
2022/10/09 06:07:57;;;;;;;;;;;8.40;73.80;;;;;;5083220;28;20523;-77
2022/10/09 06:10:22;;;;;;;;;;;8.40;73.70;;;;;;5082855;28;19924;-77
2022/10/09 06:12:48;;;;;;;;;;;8.40;73.80;;;;;;5084549;28;19934;-78
2022/10/09 06:15:13;;;;;;;;;;;8.40;73.80;;;;;;5068730;28;19919;-78
2022/10/09 06:17:39;;;;;;;;;;;8.40;73.80;;;;;;5069172;28;19923;-78
2022/10/09 06:20:05;;;;;;;;;;;8.40;73.80;;;;;;5081216;28;19925;-78
2022/10/09 06:22:30;;;;;;;;;;;8.40;73.90;;;;;;5078876;28;19916;-77
2022/10/09 06:24:55;;;;;;;;;;;8.30;73.80;;;;;;5080005;28;20007;-78
2022/10/09 06:27:21;;;;;;;;;;;8.40;73.90;;;;;;5081363;28;19923;-77
2022/10/09 06:29:46;;;;;;;;;;;8.30;73.80;;;;;;5063415;28;19924;-78
2022/10/09 06:32:12;;;;;;;;;;;8.40;73.90;;;;;;5066628;28;20951;-78
2022/10/09 06:34:37;;;;;;;;;;;8.30;73.80;;;;;;5083880;28;19923;-77
2022/10/09 06:37:03;;;;;;;;;;;8.30;73.90;;;;;;5079608;28;20371;-77
2022/10/09 06:39:28;;;;;;;;;;;8.30;73.90;;;;;;5077984;28;19924;-78
2022/10/09 06:41:54;;;;;;;;;;;8.30;73.90;;;;;;5079169;28;19966;-78
2022/10/09 06:44:19;;;;;;;;;;;8.30;73.90;;;;;;5080388;28;19940;-78
2022/10/09 06:46:47;;;;;;;;;;;8.30;74.00;;;;;;5069376;28;19984;-76
2022/10/09 06:49:12;;;;;;;;;;;8.30;73.90;;;;;;5064246;28;19931;-78
2022/10/09 06:51:38;;;;;;;;;;;8.30;73.90;;;;;;5078864;28;19916;-78
2022/10/09 06:54:06;;;;;;;;;;;8.30;73.90;;;;;;5070425;28;19912;-77
2022/10/09 06:56:31;;;;;;;;;;;8.30;74.00;;;;;;5065512;28;19955;-78
2022/10/09 06:59:00;;;;;;;;;;;8.40;74.00;;;;;;5076173;28;20427;-78
2022/10/09 07:01:26;;;;;;;;;;;8.40;74.00;;;;;;5098112;28;19912;-78
2022/10/09 07:03:53;;;;;;;;;;;8.40;74.00;;;;;;5065519;28;20335;-77
2022/10/09 07:06:20;;;;;;;;;;;8.40;74.00;;;;;;5050677;28;19912;-77
2022/10/09 07:08:46;;;;;;;;;;;8.40;74.00;;;;;;5080187;28;19990;-78
2022/10/09 07:11:12;;;;;;;;;;;8.50;74.00;;;;;;5082091;28;19961;-77
2022/10/09 07:13:38;;;;;;;;;;;8.50;74.00;;;;;;5061463;28;19955;-77
2022/10/09 07:16:04;;;;;;;;;;;8.60;74.00;;;;;;5063221;28;20000;-77
2022/10/09 07:18:30;;;;;;;;;;;8.60;74.00;;;;;;5077731;28;20553;-78
2022/10/09 07:20:56;;;;;;;;;;;8.60;73.80;;;;;;5079301;28;19924;-78
2022/10/09 07:23:21;;;;;;;;;;;8.60;73.90;;;;;;5059415;28;19912;-78
2022/10/09 07:25:47;;;;;;;;;;;8.60;73.80;;;;;;5060070;28;19919;-78
2022/10/09 07:28:12;;;;;;;;;;;8.60;73.80;;;;;;5079450;28;19916;-78
2022/10/09 07:30:38;;;;;;;;;;;8.70;73.80;;;;;;5078168;28;20398;-78
2022/10/09 07:33:03;;;;;;;;;;;8.70;73.90;;;;;;5062565;28;19920;-78
2022/10/09 07:35:29;;;;;;;;;;;8.80;73.90;;;;;;5077579;28;20397;-78
2022/10/09 07:37:54;;;;;;;;;;;8.80;73.80;;;;;;5042413;28;19933;-77
2022/10/09 07:40:20;;;;;;;;;;;8.80;73.90;;;;;;5075895;28;19916;-77
2022/10/09 07:42:45;;;;;;;;;;;8.90;73.80;;;;;;5077800;28;19937;-79
2022/10/09 07:45:10;;;;;;;;;;;9.00;73.80;;;;;;5084165;28;19912;-78
2022/10/09 07:47:36;;;;;;;;;;;9.10;73.80;;;;;;5075189;28;19973;-77
2022/10/09 07:50:02;;;;;;;;;;;9.30;73.70;;;;;;5078404;28;20255;-79
2022/10/09 07:52:27;;;;;;;;;;;9.30;73.60;;;;;;5060674;28;19916;-77
2022/10/09 07:54:53;;;;;;;;;;;9.40;73.50;;;;;;5054946;28;19950;-78
2022/10/09 07:57:18;;;;;;;;;;;9.40;73.50;;;;;;5075147;28;20007;-78
2022/10/09 07:59:44;;;;;;;;;;;9.50;73.70;;;;;;5081890;28;19926;-78
2022/10/09 08:02:09;;;;;;;;;;;9.60;73.60;;;;;;5084094;28;20431;-77
2022/10/09 08:04:37;;;;;;;;;;;9.80;73.60;;;;;;5060613;28;20011;-77
2022/10/09 08:07:03;;;;;;;;;;;10.00;73.60;;;;;;5075493;28;19920;-77
2022/10/09 08:09:28;;;;;;;;;;;10.20;73.50;;;;;;5075123;28;19976;-77
2022/10/09 08:11:54;;;;;;;;;;;10.40;73.30;;;;;;5077456;28;19920;-78
2022/10/09 08:14:19;;;;;;;;;;;10.60;73.20;;;;;;5097078;28;19981;-78
2022/10/09 08:16:45;;;;;;;;;;;10.80;73.10;;;;;;5061680;28;19919;-78
2022/10/09 08:19:11;;;;;;;;;;;10.90;72.90;;;;;;5065697;28;19923;-78
2022/10/09 08:21:36;;;;;;;;;;;11.10;72.80;;;;;;5066011;28;19927;-76
2022/10/09 08:24:02;;;;;;;;;;;11.30;72.70;;;;;;5066705;28;19916;-78
2022/10/09 08:26:27;;;;;;;;;;;11.40;72.50;;;;;;5081201;28;19916;-77
2022/10/09 08:28:55;;;;;;;;;;;11.50;72.40;;;;;;5061697;28;19912;-79
2022/10/09 08:31:20;;;;;;;;;;;11.70;72.40;;;;;;5061774;28;19912;-78
2022/10/09 08:33:46;;;;;;;;;;;11.80;72.30;;;;;;5078609;28;19912;-77
2022/10/09 08:36:14;;;;;;;;;;;12.00;72.10;;;;;;5078549;28;19966;-77
2022/10/09 08:38:39;;;;;;;;;;;12.20;72.10;;;;;;5061597;28;19916;-77
2022/10/09 08:41:06;;;;;;;;;;;12.40;71.90;;;;;;5065087;28;19927;-77
2022/10/09 08:43:33;;;;;;;;;;;12.50;71.80;;;;;;5095722;27;19912;-78
2022/10/09 08:45:59;;;;;;;;;;;12.70;71.60;;;;;;5096740;28;20398;-78
2022/10/09 08:48:25;;;;;;;;;;;12.90;71.60;;;;;;5096804;28;19965;-78
2022/10/09 08:50:52;;;;;;;;;;;13.10;71.40;;;;;;5050824;28;19920;-77
2022/10/09 08:53:23;;;;;;;;;;;13.30;71.30;;;;;;5098265;27;19912;-78
2022/10/09 08:55:49;;;;;;;;;;;13.50;71.20;;;;;;5070071;28;20441;-78
2022/10/09 08:58:16;;;;;;;;;;;13.60;71.00;;;;;;5065830;28;19916;-77
2022/10/09 09:00:49;;;;;;;;;;;13.80;71.00;;;;;;5039197;28;19979;-76
2022/10/09 09:03:33;;;;;;;;;;;14.00;70.80;;;;;;5057005;28;20296;-77
2022/10/09 09:06:11;;;;;;;;;;;14.10;70.50;;;;;;5040113;28;19916;-78
2022/10/09 09:08:46;;;;;;;;;;;14.30;70.50;;;;;;5070090;28;19920;-78
2022/10/09 09:11:30;;;;;;;;;;;14.50;70.40;;;;;;5051367;28;19940;-78
2022/10/09 09:14:09;;;;;;;;;;;14.70;70.10;;;;;;5053311;28;19921;-78
2022/10/09 09:16:35;;;;;;;;;;;14.70;70.00;;;;;;5043225;28;19920;-76
2022/10/09 09:19:10;;;;;;;;;;;15.00;70.00;;;;;;5043484;28;19920;-78
2022/10/09 09:21:51;;;;;;;;;;;15.10;69.80;;;;;;5064318;28;19935;-75
2022/10/09 09:24:17;;;;;;;;;;;15.30;69.70;;;;;;5070109;28;19912;-76
2022/10/09 09:26:44;;;;;;;;;;;15.40;69.50;;;;;;5048717;28;19932;-78
2022/10/09 09:29:09;;;;;;;;;;;15.60;69.30;;;;;;5030258;28;19923;-78
2022/10/09 09:31:35;;;;;;;;;;;15.70;69.20;;;;;;5038178;28;19914;-78
2022/10/09 09:34:21;;;;;;;;;;;15.80;69.10;;;;;;5071735;28;19967;-78
2022/10/09 09:36:56;;;;;;;;;;;16.00;69.00;;;;;;5037087;28;19920;-78
2022/10/09 09:39:23;;;;;;;;;;;16.20;68.80;;;;;;5025112;28;19917;-78
2022/10/09 09:41:48;;;;;;;;;;;16.40;68.70;;;;;;5023865;28;19996;-79
2022/10/09 09:44:14;;;;;;;;;;;16.60;68.60;;;;;;5052854;28;20020;-78
2022/10/09 09:46:39;;;;;;;;;;;16.80;68.40;;;;;;5060170;28;19924;-76
2022/10/09 09:49:17;;;;;;;;;;;17.00;68.20;;;;;;5076023;28;19951;-77
2022/10/09 09:51:43;;;;;;;;;;;17.10;68.00;;;;;;5039585;28;19920;-77
2022/10/09 09:54:15;;;;;;;;;;;17.30;67.90;;;;;;5032391;28;19967;-78
2022/10/09 09:56:41;;;;;;;;;;;17.50;67.80;;;;;;5037461;28;19921;-78
2022/10/09 09:59:14;;;;;;;;;;;17.70;67.60;;;;;;5056454;28;19928;-78
2022/10/09 10:01:39;;;;;;;;;;;18.00;67.30;;;;;;5058382;28;19999;-77
2022/10/09 10:04:15;;;;;;;;;;;18.10;67.00;;;;;;5058957;28;20015;-77
2022/10/09 10:06:42;;;;;;;;;;;18.40;66.80;;;;;;5057129;28;19923;-77
2022/10/09 10:09:12;;;;;;;;;;;18.60;66.60;;;;;;5072634;28;20007;-77
2022/10/09 10:11:37;;;;;;;;;;;18.80;66.30;;;;;;5067499;28;19956;-77
2022/10/09 10:14:06;;;;;;;;;;;19.10;66.10;;;;;;5052186;28;20007;-78
2022/10/09 10:16:35;;;;;;;;;;;19.30;66.00;;;;;;5059428;28;20609;-77
2022/10/09 10:19:00;;;;;;;;;;;19.50;65.60;;;;;;5058459;28;19912;-78
2022/10/09 10:21:26;;;;;;;;;;;19.70;65.50;;;;;;5073328;28;19908;-77
2022/10/09 10:24:04;;;;;;;;;;;19.90;65.20;;;;;;5058776;28;19954;-78
2022/10/09 10:26:40;;;;;;;;;;;20.10;65.10;;;;;;5060710;28;19940;-78
2022/10/09 10:29:10;;;;;;;;;;;20.30;64.80;;;;;;5072295;28;19912;-77
2022/10/09 10:31:40;;;;;;;;;;;20.50;64.50;;;;;;5057157;28;19920;-78
2022/10/09 10:34:07;;;;;;;;;;;20.60;64.40;;;;;;5072479;28;19928;-78
2022/10/09 10:36:33;;;;;;;;;;;20.80;64.30;;;;;;5056953;28;20443;-77
2022/10/09 10:39:07;;;;;;;;;;;20.90;64.00;;;;;;5072105;28;19952;-78
2022/10/09 10:41:36;;;;;;;;;;;21.00;63.90;;;;;;5060043;28;20546;-78
2022/10/09 10:44:10;;;;;;;;;;;21.00;63.70;;;;;;5068827;28;19930;-78
2022/10/09 10:46:47;;;;;;;;;;;21.20;63.70;;;;;;5041546;28;19916;-78
2022/10/09 10:49:14;;;;;;;;;;;21.40;63.60;;;;;;5073199;28;20549;-77
2022/10/09 10:51:45;;;;;;;;;;;21.50;63.40;;;;;;5059172;28;19919;-77
2022/10/09 10:54:29;;;;;;;;;;;21.60;64.10;;;;;;5061427;28;19919;-77
2022/10/09 10:57:06;;;;;;;;;;;21.80;63.10;;;;;;5073305;28;19912;-77
2022/10/09 10:59:36;;;;;;;;;;;22.00;63.10;;;;;;5046238;28;19920;-77
2022/10/09 11:02:14;;;;;;;;;;;22.10;62.80;;;;;;5056083;28;19920;-77
2022/10/09 11:04:47;;;;;;;;;;;22.30;62.60;;;;;;5071587;28;19974;-77
2022/10/09 11:07:30;;;;;;;;;;;22.40;62.50;;;;;;5069875;28;19915;-77
2022/10/09 11:10:05;;;;;;;;;;;22.50;62.20;;;;;;5075576;28;20288;-77
2022/10/09 11:12:30;;;;;;;;;;;22.60;62.10;;;;;;5073610;28;19920;-78
2022/10/09 11:15:00;;;;;;;;;;;22.70;62.00;;;;;;5071795;28;19920;-77
2022/10/09 11:17:31;;;;;;;;;;;22.80;61.80;;;;;;5068622;28;20755;-78
2022/10/09 11:20:00;;;;;;;;;;;22.90;61.80;;;;;;5072773;28;19927;-78
2022/10/09 11:22:51;;;;;;;;;;;23.00;61.70;;;;;;5072742;28;19940;-77
2022/10/09 11:25:20;;;;;;;;;;;23.20;61.50;;;;;;5066786;28;19916;-76
2022/10/09 11:27:51;;;;;;;;;;;23.30;61.40;;;;;;5091557;27;20003;-78
2022/10/09 11:30:17;;;;;;;;;;;23.40;61.30;;;;;;5044912;28;19916;-78
2022/10/09 11:33:02;;;;;;;;;;;23.50;61.20;;;;;;5066181;28;19912;-78
2022/10/09 11:35:28;;;;;;;;;;;23.60;61.10;;;;;;5065885;28;19919;-78
2022/10/09 11:38:00;;;;;;;;;;;23.70;60.80;;;;;;5055506;28;19935;-77
2022/10/09 11:40:29;;;;;;;;;;;23.80;60.70;;;;;;5060050;28;19920;-78
2022/10/09 11:43:13;;;;;;;;;;;23.80;60.60;;;;;;5059196;28;19990;-77
2022/10/09 11:45:41;;;;;;;;;;;24.00;60.50;;;;;;5071630;28;20372;-77
2022/10/09 11:48:08;;;;;;;;;;;24.10;60.30;;;;;;5048759;28;19912;-78
2022/10/09 11:50:43;;;;;;;;;;;24.30;60.20;;;;;;5076385;27;20388;-77
2022/10/09 11:53:09;;;;;;;;;;;24.30;60.00;;;;;;5068928;28;19923;-77
2022/10/09 11:55:35;;;;;;;;;;;24.40;59.90;;;;;;5075227;28;19991;-74
2022/10/09 11:58:18;;;;;;;;;;;24.50;59.80;;;;;;5066618;28;20527;-75
2022/10/09 12:00:44;;;;;;;;;;;24.50;59.80;;;;;;5071124;28;19920;-77
2022/10/09 12:03:32;;;;;;;;;;;24.60;59.80;;;;;;5048197;28;19919;-78
2022/10/09 12:06:15;;;;;;;;;;;24.70;59.60;;;;;;5073159;28;19912;-79
2022/10/09 12:09:01;;;;;;;;;;;24.80;59.50;;;;;;5074496;28;19977;-78
2022/10/09 12:11:27;;;;;;;;;;;24.80;59.30;;;;;;5057439;28;19912;-81
2022/10/09 12:13:53;;;;;;;;;;;24.90;59.40;;;;;;5043984;28;20282;-81
2022/10/09 12:16:36;;;;;;;;;;;24.90;59.30;;;;;;5058806;28;19912;-81
2022/10/09 12:19:02;;;;;;;;;;;25.00;59.30;;;;;;5074201;28;19947;-79
2022/10/09 12:21:34;;;;;;;;;;;25.00;59.00;;;;;;5075446;28;19922;-79
2022/10/09 12:23:59;;;;;;;;;;;25.10;59.10;;;;;;5091142;27;19959;-80
2022/10/09 12:26:25;;;;;;;;;;;25.10;59.00;;;;;;5058837;28;19993;-79
2022/10/09 12:28:51;;;;;;;;;;;25.10;59.00;;;;;;5072538;28;19912;-79
2022/10/09 12:31:36;;;;;;;;;;;25.10;59.00;;;;;;5090417;27;19912;-79
2022/10/09 12:34:25;;;;;;;;;;;25.20;59.00;;;;;;5069785;28;19916;-78
2022/10/09 12:37:01;;;;;;;;;;;25.30;59.00;;;;;;5063240;28;19927;-79
2022/10/09 12:39:27;;;;;;;;;;;25.40;58.90;;;;;;5055591;28;20391;-78
2022/10/09 12:41:53;;;;;;;;;;;25.40;58.70;;;;;;5058461;28;20668;-79
2022/10/09 12:44:29;;;;;;;;;;;25.60;58.70;;;;;;5058693;28;19919;-79
2022/10/09 12:46:58;;;;;;;;;;;25.60;58.50;;;;;;5058340;28;19940;-78
2022/10/09 12:49:24;;;;;;;;;;;25.70;58.50;;;;;;5080296;28;19919;-78
2022/10/09 12:51:50;;;;;;;;;;;25.80;59.10;;;;;;5074712;28;20284;-77
2022/10/09 12:54:16;;;;;;;;;;;25.90;58.40;;;;;;5073556;28;19923;-78
2022/10/09 12:56:41;;;;;;;;;;;25.90;58.20;;;;;;5077821;28;19924;-79
2022/10/09 12:59:07;;;;;;;;;;;26.00;58.20;;;;;;5053303;28;20384;-79
2022/10/09 13:01:33;;;;;;;;;;;26.10;58.10;;;;;;5036386;28;19916;-80
2022/10/09 13:03:59;;;;;;;;;;;26.10;57.90;;;;;;5034749;28;19912;-79
2022/10/09 13:06:35;;;;;;;;;;;26.10;58.00;;;;;;5049748;28;19912;-79
2022/10/09 13:09:01;;;;;;;;;;;26.10;58.00;;;;;;5053190;28;19913;-79
2022/10/09 13:11:39;;;;;;;;;;;26.20;58.00;;;;;;5052488;28;19912;-79
2022/10/09 13:14:04;;;;;;;;;;;26.30;58.00;;;;;;5063309;28;20487;-78
2022/10/09 13:16:39;;;;;;;;;;;26.40;57.90;;;;;;5033551;28;19995;-79
2022/10/09 13:19:17;;;;;;;;;;;26.50;57.90;;;;;;5054085;28;19923;-77
2022/10/09 13:21:42;;;;;;;;;;;26.60;58.40;;;;;;5036347;28;19912;-77
2022/10/09 13:24:10;;;;;;;;;;;26.60;57.60;;;;;;5035417;28;20411;-79
2022/10/09 13:26:36;;;;;;;;;;;26.70;57.50;;;;;;5061705;28;19920;-78
2022/10/09 13:29:02;;;;;;;;;;;26.80;57.50;;;;;;5023710;28;19916;-80
2022/10/09 13:31:28;;;;;;;;;;;26.80;57.40;;;;;;5061456;28;19920;-76
2022/10/09 13:33:53;;;;;;;;;;;26.80;57.40;;;;;;5039596;28;19920;-76
2022/10/09 13:36:19;;;;;;;;;;;26.90;57.40;;;;;;5040341;28;19920;-76
2022/10/09 13:38:45;;;;;;;;;;;26.90;57.30;;;;;;5041777;28;19920;-76
2022/10/09 13:41:13;;;;;;;;;;;27.00;57.30;;;;;;5066651;28;19921;-76
2022/10/09 13:43:39;;;;;;;;;;;27.00;57.20;;;;;;5070036;28;19912;-77
2022/10/09 13:46:04;;;;;;;;;;;27.10;57.10;;;;;;5052837;28;19919;-76
2022/10/09 13:48:30;;;;;;;;;;;27.20;57.10;;;;;;5039633;28;19912;-77
2022/10/09 13:50:58;;;;;;;;;;;27.30;57.10;;;;;;5045762;28;19923;-74
2022/10/09 13:53:23;;;;;;;;;;;27.30;56.80;;;;;;5052381;28;19924;-76
2022/10/09 13:55:50;;;;;;;;;;;27.20;56.80;;;;;;5067792;28;19916;-77
2022/10/09 13:58:16;;;;;;;;;;;27.20;57.00;;;;;;5085187;28;19924;-76
2022/10/09 14:00:43;;;;;;;;;;;27.30;57.00;;;;;;5088458;28;19945;-75
2022/10/09 14:03:08;;;;;;;;;;;27.40;56.90;;;;;;5084945;28;19923;-76
2022/10/09 14:05:34;;;;;;;;;;;27.50;56.80;;;;;;5067597;28;19915;-78
2022/10/09 14:07:59;;;;;;;;;;;27.50;56.70;;;;;;5069545;28;20284;-77
2022/10/09 14:10:25;;;;;;;;;;;27.60;56.70;;;;;;5092082;28;19934;-76
2022/10/09 14:12:51;;;;;;;;;;;27.60;56.60;;;;;;5087468;28;19913;-76
2022/10/09 14:15:16;;;;;;;;;;;27.60;56.60;;;;;;5055762;28;19912;-75
2022/10/09 14:17:42;;;;;;;;;;;27.70;56.60;;;;;;5070937;28;19916;-77
2022/10/09 14:20:07;;;;;;;;;;;27.70;56.60;;;;;;5094176;28;19955;-78
2022/10/09 14:22:33;;;;;;;;;;;27.80;56.50;;;;;;5081388;28;19960;-79
2022/10/09 14:24:58;;;;;;;;;;;27.70;56.40;;;;;;5063548;28;19931;-79
2022/10/09 14:27:24;;;;;;;;;;;27.70;56.40;;;;;;5078477;28;19912;-81
2022/10/09 14:29:49;;;;;;;;;;;27.70;56.40;;;;;;5074752;28;19940;-79
2022/10/09 14:32:15;;;;;;;;;;;27.80;56.50;;;;;;5078523;28;20372;-78
2022/10/09 14:34:40;;;;;;;;;;;27.80;56.40;;;;;;5076817;28;19927;-80
2022/10/09 14:37:06;;;;;;;;;;;27.80;56.30;;;;;;5069723;28;20393;-79
2022/10/09 14:39:31;;;;;;;;;;;27.80;56.30;;;;;;5071979;28;19924;-79
2022/10/09 14:41:57;;;;;;;;;;;27.80;57.10;;;;;;5075006;28;20377;-80
2022/10/09 14:44:22;;;;;;;;;;;27.80;56.40;;;;;;5070549;28;19981;-79
2022/10/09 14:46:48;;;;;;;;;;;27.80;56.30;;;;;;5075947;28;19975;-79
2022/10/09 14:49:13;;;;;;;;;;;27.80;56.30;;;;;;5080946;28;20199;-79
2022/10/09 14:51:39;;;;;;;;;;;27.80;56.30;;;;;;5078205;28;19912;-77
2022/10/09 14:54:04;;;;;;;;;;;27.80;56.20;;;;;;5062060;28;19964;-77
2022/10/09 14:56:30;;;;;;;;;;;27.80;56.30;;;;;;5059729;28;20314;-77